Valley Peak, Santa Cruz Island Reserve, California Weather observations

Data are for 10 minute period ending at time listed.
 Day   Time   Solar   Ave.   Ave.  Ave.  Vector  Max.   Baro.   Total    
  of    of     Rad.   Air    Rel.  Wind   Wind   Wind  Press.  Precip.   
Year   Day            Temp.  Hum.  Speed  Dir.   Gust                    
2016   (PST)  Kw/m2    F      %     mph   deg.    mph    mb.     in.     
-------------------------------------------------------------------------
  39    3:30   0.00   67.9    18   26.6    47    41.4   969.8    0.00 
  39    3:40   0.00   67.9    18   26.5    42    40.5   969.8    0.00 
  39    3:50   0.00   67.9    18   25.3    46    41.7   969.7    0.00 
  39    4:00   0.00   67.8    18   26.5    46    40.0   969.8    0.00 
  39    4:10   0.00   67.8    18   27.0    44    45.0   969.7    0.00 
  39    4:20   0.00   67.9    18   26.9    44    43.1   969.8    0.00 
  39    4:30   0.00   67.5    19   27.8    44    40.6   969.8    0.00 
  39    4:40   0.00   67.3    19   27.5    44    41.8   969.9    0.00 
  39    4:50   0.00   67.3    19   28.0    44    43.9   969.8    0.00 
  39    5:00   0.00   67.4    19   27.8    46    45.9   970.0    0.00 
  39    5:10   0.00   67.3    19   25.5    46    43.6   970.1    0.00 
  39    5:20   0.00   67.6    18   26.1    48    41.0   970.1    0.00 
  39    5:30   0.00   67.7    18   25.5    45    44.9   970.2    0.00 
  39    5:40   0.00   67.4    19   25.6    48    40.7   970.3    0.00 
  39    5:50   0.00   67.4    19   28.4    46    41.2   970.2    0.00 
  39    6:00   0.00   67.2    19   26.5    44    41.9   970.3    0.00 
  39    6:10   0.00   66.9    20   27.9    46    38.9   970.4    0.00 
  39    6:20   0.00   66.9    20   27.1    46    42.7   970.5    0.00 
  39    6:30   0.00   66.9    20   25.2    46    41.7   970.5    0.00 
  39    6:40   0.00   67.1    20   26.9    42    38.9   970.5    0.00 
  39    6:50   0.00   66.9    20   27.9    47    40.0   970.5    0.00 
  39    7:00   0.01   66.9    20   28.0    45    44.3   970.5    0.00 
  39    7:10   0.04   67.2    20   29.8    46    44.3   970.4    0.00 
  39    7:20   0.07   67.0    20   28.7    43    42.2   970.5    0.00 
  39    7:30   0.10   66.9    20   29.9    43    43.0   970.6    0.00 
  39    7:40   0.13   67.2    20   29.7    45    47.0   970.6    0.00 
  39    7:50   0.17   67.6    20   30.7    46    46.1   970.6    0.00 
  39    8:00   0.20   68.1    20   30.4    45    43.2   970.6    0.00 
  39    8:10   0.23   68.2    20   30.0    43    43.5   970.7    0.00 
  39    8:20   0.27   68.3    20   29.0    42    46.8   970.9    0.00 
  39    8:30   0.30   68.7    20   29.0    44    41.1   971.0    0.00 
  39    8:40   0.33   69.1    20   27.9    43    40.8   971.0    0.00 
  39    8:50   0.37   69.3    20   27.1    43    39.6   971.1    0.00 
  39    9:00   0.40   69.6    20   24.9    44    36.4   971.3    0.00 
  39    9:10   0.43   69.9    20   23.4    42    34.3   971.5    0.00 
  39    9:20   0.46   70.2    20   23.7    39    34.4   971.5    0.00 
  39    9:30   0.48   70.7    20   23.2    42    34.0   971.7    0.00 
  39    9:40   0.51   71.1    19   22.3    43    34.7   971.7    0.00 
  39    9:50   0.54   71.6    19   24.5    40    32.3   971.7    0.00 
  39   10:00   0.56   72.2    19   21.3    39    31.6   971.8    0.00 
  39   10:10   0.58   72.6    18   20.4    39    29.1   971.9    0.00 
  39   10:20   0.60   73.0    19   18.7    35    26.7   971.9    0.00 
  39   10:30   0.62   73.6    18   18.6    39    28.4   972.0    0.00 
  39   10:40   0.64   74.0    18   17.5    38    26.9   972.0    0.00 
  39   10:50   0.65   74.8    18   15.9    41    25.1   972.0    0.00 
  39   11:00   0.67   75.4    18   17.2    45    25.9   972.0    0.00 
  39   11:10   0.68   75.9    18   16.5    44    25.9   971.9    0.00 
  39   11:20   0.69   76.2    17   16.8    45    28.0   971.9    0.00 
  39   11:30   0.70   76.3    18   16.1    44    28.6   971.8    0.00 
  39   11:40   0.71   76.3    18   18.3    44    30.0   971.6    0.00 
  39   11:50   0.71   76.9    18   13.8    46    25.6   971.6    0.00 
  39   12:00   0.71   77.2    17   15.0    46    28.1   971.4    0.00 
  39   12:10   0.71   77.4    17   15.3    45    26.9   971.3    0.00 
  39   12:20   0.71   78.4    17   14.8    50    25.3   971.2    0.00 
  39   12:30   0.71   78.5    16   13.2    50    25.6   971.0    0.00 
  39   12:40   0.71   79.2    17   12.4    55    23.8   970.9    0.00 
  39   12:50   0.69   80.0    16   13.5    54    23.4   970.8    0.00 
  39   13:00   0.69   80.0    16   17.3    61    29.3   970.6    0.00 
  39   13:10   0.68   80.4    16   12.6    53    22.9   970.5    0.00 
  39   13:20   0.67   80.1    16   12.6    58    26.3   970.4    0.00 
  39   13:30   0.65   80.2    16   14.3    54    30.2   970.2    0.00 
  39   13:40   0.64   80.5    16   13.4    53    28.2   970.1    0.00 
  39   13:50   0.62   80.3    16   12.3    52    22.9   970.1    0.00 
  39   14:00   0.60   80.3    16   11.9    51    22.9   970.1    0.00 
  39   14:10   0.58   80.5    16    9.8    50    23.0   970.1    0.00 
  39   14:20   0.56   80.7    16   10.4    50    19.4   970.2    0.00 
  39   14:30   0.53   80.6    16   11.3    56    20.8   970.1    0.00 
  39   14:40   0.51   81.2    16   11.3    57    21.0   970.1    0.00 
  39   14:50   0.48   81.2    16    8.3    54    18.0   970.2    0.00 
  39   15:00   0.45   80.9    15   12.3    58    23.7   970.1    0.00 
  39   15:10   0.42   80.6    16    8.0    58    18.3   970.2    0.00 
  39   15:20   0.39   80.9    16    6.4    64    14.7   970.3    0.00 
  39   15:30   0.36   81.2    16    6.0    65    18.4   970.4    0.00 
  39   15:40   0.33   81.6    16    3.5    70    10.2   970.4    0.00 
  39   15:50   0.30   82.3    18    5.4    98     8.4   970.4    0.00 
  39   16:00   0.27   83.2    17    7.4    82    13.5   970.5    0.00 
  39   16:10   0.23   81.8    17    9.2    71    19.3   970.4    0.00 
  39   16:20   0.20   80.7    17    7.2    73    16.2   970.4    0.00 
  39   16:30   0.17   80.3    16   13.2    69    20.3   970.3    0.00 
  39   16:40   0.14   79.2    16   12.9    63    22.1   970.0    0.00 
  39   16:50   0.10   78.1    16   16.3    70    24.9   969.8    0.00 
  39   17:00   0.08   77.3    16   17.3    68    27.9   969.7    0.00 
  39   17:10   0.04   76.9    16   12.5    66    21.7   969.7    0.00 
  39   17:20   0.02   75.9    16   17.8    66    28.0   969.7    0.00 
  39   17:30   0.01   75.1    16   21.4    68    29.5   969.6    0.00 
  39   17:40   0.00   74.0    16   20.2    69    28.1   969.8    0.00 
  39   17:50   0.00   73.1    16   20.8    66    31.6   969.8    0.00 
  39   18:00   0.00   72.9    16   21.4    65    31.8   969.8    0.00 
  39   18:10   0.00   72.8    16   21.1    67    31.0   969.9    0.00 
  39   18:20   0.00   72.7    16   19.5    62    34.4   970.0    0.00 
  39   18:30   0.00   72.4    16   17.6    53    32.5   970.0    0.00 
  39   18:40   0.00   72.5    16   22.4    57    34.8   970.2    0.00 
  39   18:50   0.00   72.4    16   19.9    54    31.7   970.2    0.00 
  39   19:00   0.00   72.3    16   21.5    52    34.9   970.2    0.00 
  39   19:10   0.00   72.4    16   23.5    50    36.0   970.2    0.00 
  39   19:20   0.00   72.3    16   20.2    46    34.8   970.3    0.00 
  39   19:30   0.00   72.6    16   20.9    48    34.8   970.4    0.00 
  39   19:40   0.00   72.3    16   17.0    46    33.8   970.7    0.00 
  39   19:50   0.00   71.6    17   16.7    40    30.6   970.8    0.00 
  39   20:00   0.00   70.6    19   18.1    37    29.2   970.9    0.00 
  39   20:10   0.00   70.2    20   19.8    39    27.2   970.9    0.00 
  39   20:20   0.00   69.6    20   20.1    38    26.7   970.8    0.00 
  39   20:30   0.00   69.2    21   20.6    44    32.4   970.7    0.00 
  39   20:40   0.00   69.2    20   20.3    40    27.6   970.8    0.00 
  39   20:50   0.00   68.8    21   18.6    42    25.8   970.9    0.00 
  39   21:00   0.00   68.8    20   21.3    41    30.2   970.8    0.00 
  39   21:10   0.00   69.2    20   21.4    42    29.7   970.9    0.00 
  39   21:20   0.00   69.3    19   20.9    44    27.8   970.9    0.00 
  39   21:30   0.00   69.6    18   22.4    44    30.0   970.9    0.00 
  39   21:40   0.00   70.0    18   23.2    44    34.9   970.8    0.00 
  39   21:50   0.00   70.2    17   22.7    44    34.6   970.9    0.00 
  39   22:00   0.00   70.2    17   22.4    44    31.3   971.0    0.00 
  39   22:10   0.00   70.2    17   22.8    42    30.0   971.1    0.00 
  39   22:20   0.00   69.8    17   22.1    43    31.1   971.1    0.00 
  39   22:30   0.00   69.8    17   22.6    43    30.9   971.1    0.00 
  39   22:40   0.00   69.7    18   22.0    43    32.1   971.2    0.00 
  39   22:50   0.00   70.0    17   22.9    44    33.0   971.2    0.00 
  39   23:00   0.00   69.6    18   20.7    39    29.7   971.1    0.00 
  39   23:10   0.00   69.1    19   20.1    41    29.9   971.1    0.00 
  39   23:20   0.00   68.9    19   20.8    40    32.2   971.0    0.00 
  39   23:30   0.00   68.8    19   21.7    40    31.0   970.9    0.00 
  39   23:40   0.00   68.9    20   22.3    41    30.4   970.8    0.00 
  39   23:50   0.00   69.3    19   21.4    44    30.2   970.8    0.00 
  40    0:00   0.00   69.2    20   21.4    46    30.0   970.8    0.00 
  40    0:10   0.00   69.7    19   20.9    45    35.4   970.9    0.00 
  40    0:20   0.00   70.2    18   21.0    47    32.3   970.9    0.00 
  40    0:30   0.00   70.4    18   20.5    50    31.5   970.9    0.00 
  40    0:40   0.00   70.1    19   19.1    49    28.2   970.9    0.00 
  40    0:50   0.00   69.8    19   19.4    50    27.6   971.0    0.00 
  40    1:00   0.00   69.7    19   18.3    51    25.7   971.0    0.00 
  40    1:10   0.00   69.8    18   16.9    53    23.2   970.9    0.00 
  40    1:20   0.00   70.1    18   17.5    54    25.1   970.9    0.00 
  40    1:30   0.00   70.3    18   16.9    52    25.6   970.9    0.00 
  40    1:40   0.00   70.3    18   17.3    52    23.9   970.9    0.00 
  40    1:50   0.00   70.2    18   18.4    51    26.0   970.8    0.00 
  40    2:00   0.00   70.3    18   18.8    52    27.8   970.8    0.00 
  40    2:10   0.00   69.8    19   18.6    47    25.6   970.8    0.00 
  40    2:20   0.00   69.6    19   18.5    44    24.7   970.8    0.00 
  40    2:30   0.00   69.5    19   18.4    46    25.8   970.8    0.00 
  40    2:40   0.00   69.5    19   18.3    46    26.3   970.6    0.00 
  40    2:50   0.00   69.5    19   19.6    47    30.3   970.5    0.00 
  40    3:00   0.00   69.4    19   20.3    48    27.8   970.4    0.00 
  40    3:10   0.00   69.3    19   19.0    45    30.8   970.3    0.00 
  40    3:20   0.00   69.5    19   20.9    45    32.6   970.2    0.00 

Return to Valley Peak, Santa Cruz Island Reserve graphs page.


Western Regional Climate Center,wrcc@dri.edu